createdAt,value
2019-02-25T00:02:14.589Z,3.89
2019-02-25T00:07:16.185Z,3.82
2019-02-25T00:12:17.861Z,3.91
2019-02-25T00:17:19.462Z,3.99
2019-02-25T00:22:21.034Z,4.08
2019-02-25T00:27:22.613Z,4.11
2019-02-25T00:32:24.204Z,4.13
2019-02-25T00:37:25.798Z,4.04
2019-02-25T00:42:27.471Z,4.00
2019-02-25T00:47:29.050Z,4.02
2019-02-25T00:52:30.615Z,3.99
2019-02-25T00:57:32.168Z,3.98
2019-02-25T01:02:33.865Z,4.10
2019-02-25T01:07:35.435Z,4.21
2019-02-25T01:12:36.989Z,4.29
2019-02-25T01:17:38.549Z,4.28
2019-02-25T01:22:40.248Z,4.31
2019-02-25T01:27:41.820Z,4.30
2019-02-25T01:32:43.501Z,4.20
2019-02-25T01:37:45.087Z,4.14
2019-02-25T01:42:46.775Z,4.03
2019-02-25T01:47:48.358Z,4.02
2019-02-25T01:52:50.028Z,4.13
2019-02-25T01:57:51.628Z,4.26
2019-02-25T02:02:53.155Z,4.25
2019-02-25T02:07:54.711Z,4.21
2019-02-25T02:12:56.286Z,4.14
2019-02-25T02:17:57.846Z,4.10
2019-02-25T02:22:59.427Z,4.02
2019-02-25T02:28:01.006Z,3.90
2019-02-25T02:33:02.591Z,3.87
2019-02-25T02:38:04.313Z,3.98
2019-02-25T02:43:05.977Z,4.08
2019-02-25T02:48:23.895Z,4.05
2019-02-25T02:53:25.500Z,4.00
2019-02-25T02:58:27.079Z,3.92
2019-02-25T03:03:28.655Z,3.86
2019-02-25T03:08:30.337Z,3.80
2019-02-25T03:13:31.948Z,3.79
2019-02-25T03:18:33.549Z,3.79
2019-02-25T03:23:35.254Z,3.84
2019-02-25T03:28:36.931Z,3.75
2019-02-25T03:33:38.582Z,3.68
2019-02-25T03:38:40.137Z,3.63
2019-02-25T03:43:41.714Z,3.64
2019-02-25T03:48:43.306Z,3.60
2019-02-25T03:53:44.894Z,3.58
2019-02-25T03:58:46.475Z,3.62
2019-02-25T04:03:48.207Z,3.74
2019-02-25T04:08:49.785Z,3.74
2019-02-25T04:13:51.373Z,3.79
2019-02-25T04:18:52.947Z,3.73
2019-02-25T04:23:54.548Z,3.57
2019-02-25T04:28:56.139Z,3.51
2019-02-25T04:33:57.713Z,3.48
2019-02-25T04:38:59.330Z,3.47
2019-02-25T04:44:01.124Z,3.42
2019-02-25T04:49:02.987Z,3.38
2019-02-25T04:54:04.580Z,3.45
2019-02-25T04:59:06.170Z,3.46
2019-02-25T05:04:07.783Z,3.44
2019-02-25T05:09:09.375Z,3.33
2019-02-25T05:14:11.027Z,3.19
2019-02-25T05:19:12.620Z,3.20
2019-02-25T05:24:14.186Z,3.27
2019-02-25T05:29:15.895Z,3.25
2019-02-25T05:34:17.499Z,3.26
2019-02-25T05:39:19.082Z,3.39
2019-02-25T05:44:20.665Z,3.37
2019-02-25T05:49:22.282Z,3.36
2019-02-25T05:54:23.859Z,3.38
2019-02-25T05:59:25.451Z,3.29
2019-02-25T06:04:27.032Z,3.13
2019-02-25T06:09:28.620Z,3.01
2019-02-25T06:14:30.191Z,3.15
2019-02-25T06:19:31.783Z,3.21
2019-02-25T06:24:33.364Z,3.21
2019-02-25T06:29:34.940Z,3.25
2019-02-25T06:34:36.631Z,3.32
2019-02-25T06:39:38.211Z,3.40
2019-02-25T06:44:39.816Z,3.39
2019-02-25T06:49:41.410Z,3.46
2019-02-25T06:54:43.013Z,3.54
2019-02-25T06:59:44.613Z,3.66
2019-02-25T07:04:59.507Z,3.73
2019-02-25T07:10:07.928Z,3.83
2019-02-25T07:15:15.521Z,3.88
2019-02-25T07:20:27.119Z,3.96
2019-02-25T07:25:38.134Z,4.02
2019-02-25T07:30:54.329Z,4.07
2019-02-25T07:36:05.733Z,4.18
2019-02-25T07:41:17.251Z,4.27
2019-02-25T07:46:53.708Z,4.35
2019-02-25T07:52:04.931Z,4.46
2019-02-25T07:57:21.846Z,4.58
2019-02-25T08:02:30.075Z,4.73
2019-02-25T08:07:37.499Z,4.83
2019-02-25T08:12:50.723Z,4.96
2019-02-25T08:18:06.266Z,5.04
2019-02-25T08:23:30.458Z,5.15
2019-02-25T08:28:41.526Z,5.25
2019-02-25T08:34:05.548Z,5.35
2019-02-25T08:39:24.929Z,5.48
2019-02-25T08:44:32.432Z,5.56
2019-02-25T08:49:46.104Z,5.65
2019-02-25T08:54:47.844Z,5.71
2019-02-25T08:59:49.426Z,5.76
2019-02-25T09:04:51.015Z,5.79
2019-02-25T09:09:52.720Z,5.89
2019-02-25T09:14:54.280Z,6.00
2019-02-25T09:19:55.876Z,6.12
2019-02-25T09:24:57.500Z,6.24
2019-02-25T09:29:59.098Z,6.36
2019-02-25T09:35:00.699Z,6.47
2019-02-25T09:40:03.069Z,6.61
2019-02-25T09:45:06.187Z,6.72
2019-02-25T09:50:09.301Z,6.83
2019-02-25T09:55:11.024Z,6.90
2019-02-25T10:00:14.594Z,7.03
2019-02-25T10:05:16.362Z,7.15
2019-02-25T10:10:18.172Z,7.27
2019-02-25T10:15:19.818Z,7.37
2019-02-25T10:20:21.435Z,7.51
2019-02-25T10:25:23.028Z,7.66
2019-02-25T10:30:24.642Z,7.83
2019-02-25T10:35:27.186Z,7.98
2019-02-25T10:40:29.159Z,8.20
2019-02-25T10:45:30.912Z,8.43
2019-02-25T10:50:33.458Z,8.76
2019-02-25T10:55:41.353Z,9.06
2019-02-25T11:00:44.349Z,9.27
2019-02-25T11:05:46.987Z,9.46
2019-02-25T11:11:06.984Z,9.57
2019-02-25T11:16:09.851Z,9.81
2019-02-25T11:21:12.154Z,10.05
2019-02-25T11:26:13.760Z,10.30
2019-02-25T11:31:17.495Z,10.53
2019-02-25T11:36:20.161Z,10.85
2019-02-25T11:41:22.621Z,11.36
2019-02-25T11:46:24.333Z,13.26
2019-02-25T11:51:27.324Z,20.76
2019-02-25T11:56:31.148Z,24.06
2019-02-25T12:01:32.994Z,25.47
2019-02-25T12:06:34.607Z,25.49
2019-02-25T12:11:36.313Z,26.40
2019-02-25T12:16:37.920Z,24.73
2019-02-25T12:21:42.402Z,25.58
2019-02-25T12:26:44.069Z,26.21
2019-02-25T12:31:45.652Z,24.54
2019-02-25T12:36:47.265Z,25.04
2019-02-25T12:41:48.979Z,23.63
2019-02-25T12:46:50.606Z,21.27
2019-02-25T12:51:52.227Z,22.81
2019-02-25T12:56:53.812Z,24.81
2019-02-25T13:01:55.444Z,25.08
2019-02-25T13:06:57.072Z,25.24
2019-02-25T13:11:58.665Z,24.67
2019-02-25T13:17:00.425Z,24.41
2019-02-25T13:22:02.027Z,23.97
2019-02-25T13:27:05.654Z,23.77
2019-02-25T13:32:07.213Z,23.97
2019-02-25T13:37:08.842Z,24.09
2019-02-25T13:42:10.455Z,24.38
2019-02-25T13:47:12.123Z,23.37
2019-02-25T13:52:13.710Z,20.96
2019-02-25T13:57:15.284Z,20.18
2019-02-25T14:02:16.967Z,20.47
2019-02-25T14:07:18.539Z,20.94
2019-02-25T14:12:20.221Z,20.95
2019-02-25T14:17:22.000Z,20.07
2019-02-25T14:22:23.777Z,18.17
2019-02-25T14:27:27.152Z,17.15
2019-02-25T14:32:30.014Z,16.92
2019-02-25T14:37:31.835Z,16.61
2019-02-25T14:42:34.152Z,16.17
2019-02-25T14:47:39.563Z,15.68
2019-02-25T14:52:40.623Z,15.37
2019-02-25T14:57:43.734Z,14.91
2019-02-25T15:02:46.058Z,14.67
2019-02-25T15:07:50.782Z,14.51
2019-02-25T15:12:56.633Z,14.28
2019-02-25T15:17:56.394Z,14.18
2019-02-25T15:22:57.986Z,14.17
2019-02-25T15:27:59.565Z,14.18
2019-02-25T15:33:01.291Z,14.12
2019-02-25T15:38:03.213Z,14.05
2019-02-25T15:43:10.420Z,13.93
2019-02-25T15:48:16.495Z,13.88
2019-02-25T15:53:18.314Z,13.97
2019-02-25T15:58:20.137Z,13.97
2019-02-25T16:03:22.048Z,14.04
2019-02-25T16:08:24.343Z,14.04
2019-02-25T16:13:27.530Z,13.91
2019-02-25T16:18:29.216Z,13.87
2019-02-25T16:23:32.025Z,13.98
2019-02-25T16:28:36.131Z,13.79
2019-02-25T16:33:38.103Z,13.42
2019-02-25T16:38:39.821Z,13.17
2019-02-25T16:43:41.429Z,12.73
2019-02-25T16:48:43.433Z,12.42
2019-02-25T16:53:45.555Z,12.17
2019-02-25T16:58:49.972Z,11.94
2019-02-25T17:03:52.038Z,11.74
2019-02-25T17:08:55.538Z,11.54
2019-02-25T17:13:57.775Z,11.42
2019-02-25T17:19:01.314Z,11.31
2019-02-25T17:24:05.201Z,11.23
2019-02-25T17:29:06.802Z,11.06
2019-02-25T17:34:10.027Z,10.89
2019-02-25T17:39:14.596Z,10.75
2019-02-25T17:44:17.894Z,10.54
2019-02-25T17:49:19.877Z,10.48
2019-02-25T17:54:21.486Z,10.40
2019-02-25T17:59:25.041Z,10.17
2019-02-25T18:04:28.306Z,10.09
2019-02-25T18:09:30.304Z,10.02
2019-02-25T18:14:31.958Z,9.80
2019-02-25T18:19:33.564Z,9.62
2019-02-25T18:24:35.285Z,9.51
2019-02-25T18:29:36.977Z,9.33
2019-02-25T18:34:38.891Z,9.22
2019-02-25T18:39:40.719Z,9.15
2019-02-25T18:44:42.786Z,9.05
2019-02-25T18:49:45.951Z,8.95
2019-02-25T18:54:47.601Z,8.96
2019-02-25T18:59:49.317Z,8.90
2019-02-25T19:04:50.930Z,8.75
2019-02-25T19:09:53.941Z,8.65
2019-02-25T19:14:57.683Z,8.61
2019-02-25T19:19:59.728Z,8.55
2019-02-25T19:25:01.459Z,8.46
2019-02-25T19:30:04.586Z,8.41
2019-02-25T19:35:09.736Z,8.32
2019-02-25T19:40:14.270Z,8.25
2019-02-25T19:45:15.506Z,8.24
2019-02-25T19:50:17.512Z,8.31
2019-02-25T19:55:20.654Z,8.29
2019-02-25T20:00:27.215Z,8.22
2019-02-25T20:05:29.290Z,8.30
2019-02-25T20:10:31.078Z,8.33
2019-02-25T20:15:32.679Z,8.29
2019-02-25T20:20:36.567Z,8.39
2019-02-25T20:25:38.384Z,8.35
2019-02-25T20:30:40.141Z,8.14
2019-02-25T20:35:45.279Z,7.94
2019-02-25T20:40:47.143Z,7.70
2019-02-25T20:45:52.111Z,7.63
2019-02-25T20:50:52.239Z,7.59
2019-02-25T20:55:54.641Z,7.54
2019-02-25T21:00:57.431Z,7.40
2019-02-25T21:05:59.018Z,7.29
2019-02-25T21:11:01.834Z,7.15
2019-02-25T21:16:04.885Z,7.13
2019-02-25T21:21:11.261Z,7.17
2019-02-25T21:26:11.629Z,7.15
2019-02-25T21:31:14.602Z,7.16
2019-02-25T21:36:17.025Z,7.22
2019-02-25T21:41:18.611Z,7.06
2019-02-25T21:46:22.488Z,7.00
2019-02-25T21:51:23.683Z,7.00
2019-02-25T21:56:26.985Z,7.15
2019-02-25T22:01:29.970Z,7.13
2019-02-25T22:06:33.244Z,7.17
2019-02-25T22:11:37.476Z,7.17
2019-02-25T22:16:44.016Z,7.11
2019-02-25T22:21:42.612Z,6.96
2019-02-25T22:26:44.193Z,6.91
2019-02-25T22:31:45.786Z,6.90
2019-02-25T22:36:48.631Z,6.87
2019-02-25T22:41:51.006Z,6.84
2019-02-25T22:46:52.563Z,6.75
2019-02-25T22:51:55.893Z,6.80
2019-02-25T22:56:57.758Z,6.84
2019-02-25T23:01:59.343Z,6.86
2019-02-25T23:07:01.036Z,6.82
2019-02-25T23:12:02.818Z,6.80
2019-02-25T23:17:06.465Z,6.74
2019-02-25T23:22:08.023Z,6.65
2019-02-25T23:27:09.628Z,6.55
2019-02-25T23:32:11.224Z,6.42
2019-02-25T23:37:14.762Z,6.13
2019-02-25T23:42:18.019Z,6.05
2019-02-25T23:47:19.729Z,5.94
2019-02-25T23:52:21.300Z,5.86
2019-02-25T23:57:23.858Z,5.86
